METAR Data
IDs: Format: Raw Decoded Include TAF

Data at: 2137 UTC 22 Sep 2020

KSBM 222053Z AUTO 22007KT 10SM CLR 26/16 A3007 RMK AO2 SLP178 T02610156 56019
KSBM 221953Z AUTO 22006KT 10SM CLR 26/16 A3008 RMK AO2 SLP183 T02610156
KSBM 221853Z AUTO 24005KT 10SM CLR 26/16 A3009 RMK AO2 SLP189 T02560156
KSBM 221753Z AUTO 10SM CLR 25/15 A3012 RMK AO2 SLP199 T02500150 10250 20133 56013
KSBM 221653Z AUTO 30007KT 10SM CLR 23/14 A3013 RMK AO2 SLP203 T02330139
KSBM 221553Z AUTO 29007KT 10SM CLR 23/13 A3015 RMK AO2 SLP208 T02280133
KSBM 221453Z AUTO 25005KT 10SM FEW110 22/13 A3016 RMK AO2 SLP212 T02170128 56005
KSBM 221353Z AUTO 21006KT 10SM CLR 18/13 A3016 RMK AO2 SLP214 T01830128
KSBM 221253Z AUTO 20003KT 10SM CLR 15/12 A3016 RMK AO2 SLP214 T01500117
KSBM 221153Z AUTO 23004KT 10SM CLR 13/10 A3017 RMK AO2 SLP219 60000 T01330100 10139 20122 55005
KSBM 221053Z AUTO 21003KT 10SM CLR 13/10 A3017 RMK AO2 SLP217 T01280100
KSBM 220953Z AUTO 22005KT 10SM FEW065 BKN120 14/11 A3018 RMK AO2 RAE03B35E47 SLP218 P0000 T01390106
KSBM 220853Z AUTO 20005KT 10SM -RA FEW070 SCT090 OVC110 14/11 A3019 RMK AO2 RAB48 SLP222 P0000 60000 T01390106 58011
KSBM 220753Z AUTO 00000KT 10SM CLR 13/11 A3020 RMK AO2 SLP228 T01280106
KSBM 220653Z AUTO 00000KT 10SM CLR 13/10 A3022 RMK AO2 SLP231 T01280100
KSBM 220553Z AUTO 00000KT 10SM CLR 12/10 A3022 RMK AO2 SLP234 T01220100 10167 20122 402280078 51002
KSBM 220453Z AUTO 21005KT 10SM CLR 13/11 A3022 RMK AO2 SLP233 T01330106
KSBM 220353Z AUTO 18007KT 10SM CLR 14/11 A3022 RMK AO2 SLP234 T01390106
KSBM 220253Z AUTO 00000KT 10SM CLR 13/11 A3022 RMK AO2 SLP232 T01330106 57003
KSBM 220153Z AUTO 20005KT 10SM CLR 15/11 A3022 RMK AO2 SLP235 T01500106
KSBM 220053Z AUTO 17009KT 10SM CLR 16/11 A3022 RMK AO2 SLP234 T01610106
KSBM 212353Z AUTO 17011KT 10SM CLR 17/12 A3023 RMK AO2 SLP237 T01670117 10228 20167 56011
KSBM 212253Z AUTO 17012G18KT 10SM CLR 18/12 A3024 RMK AO2 SLP239 T01780117
KSBM 212153Z AUTO 16008G20KT 10SM CLR 19/11 A3025 RMK AO2 SLP243 T01940111
KSBM 212053Z AUTO 17013KT 10SM CLR 21/10 A3026 RMK AO2 SLP247 T02060100 56021
KSBM 211953Z AUTO 16009KT 10SM CLR 21/10 A3028 RMK AO2 SLP255 T02110100
KSBM 211853Z AUTO 16011KT 10SM CLR 22/09 A3029 RMK AO2 SLP258 T02220094
KSBM 211753Z AUTO 19012KT 10SM CLR 22/08 A3032 RMK AO2 SLP268 T02220078 10222 20094 58016
KSBM 211653Z AUTO 22012KT 10SM CLR 21/07 A3034 RMK AO2 SLP275 T02110067
KSBM 211553Z AUTO 20012KT 10SM CLR 20/07 A3036 RMK AO2 SLP282 T02000067
KSBM 211453Z AUTO 18004KT 10SM CLR 18/09 A3037 RMK AO2 SLP286 T01780089 51004
KSBM 211353Z AUTO 19006KT 10SM CLR 15/09 A3037 RMK AO2 SLP285 T01500089
KSBM 211253Z AUTO 19008KT 10SM CLR 13/09 A3037 RMK AO2 SLP284 T01330094
KSBM 211153Z AUTO 19006KT 10SM CLR 09/08 A3036 RMK AO2 SLP283 T00940078 10122 20078 53000
KSBM 211053Z AUTO 18005KT 10SM CLR 12/09 A3035 RMK AO2 SLP278 T01170094
KSBM 210953Z AUTO 17003KT 6SM BR CLR 09/08 A3035 RMK AO2 SLP280 T00940078